Time;durP1;ratioP1;P1;durP2;ratioP2;P2;SDS_P1;SDS_P2;PMS_P1;PMS_P2;Temp;Humidity;BMP_temperature;BMP_pressure;BME280_temperature;BME280_humidity;BME280_pressure;Samples;Min_cycle;Max_cycle;Signal;HPM_P1;HPM_P2
2022/12/06 00:00:55;;;;;;;13.35;5.15;;;6.00;99.90;;;;;;5104179;28;20078;-68
2022/12/06 00:03:21;;;;;;;14.15;5.50;;;6.00;99.90;;;;;;5082925;28;20080;-68
2022/12/06 00:05:47;;;;;;;14.35;5.80;;;6.00;99.90;;;;;;5103369;28;20640;-68
2022/12/06 00:08:13;;;;;;;11.88;5.50;;;6.10;99.90;;;;;;5083534;28;20083;-68
2022/12/06 00:10:39;;;;;;;11.18;6.07;;;6.00;99.90;;;;;;5085042;28;20087;-68
2022/12/06 00:13:05;;;;;;;12.93;5.97;;;6.10;99.90;;;;;;5101137;28;20040;-68
2022/12/06 00:15:35;;;;;;;14.07;6.80;;;6.00;99.90;;;;;;5079051;28;20055;-68
2022/12/06 00:18:01;;;;;;;15.13;7.20;;;6.00;99.90;;;;;;5080214;28;20048;-68
2022/12/06 00:20:27;;;;;;;16.50;7.70;;;6.10;99.90;;;;;;5104592;28;20044;-68
2022/12/06 00:22:53;;;;;;;16.40;6.75;;;6.00;99.90;;;;;;5083987;28;20083;-68
2022/12/06 00:25:18;;;;;;;18.00;9.15;;;6.00;99.90;;;;;;5082347;28;20044;-68
2022/12/06 00:27:44;;;;;;;12.88;5.85;;;6.00;99.90;;;;;;5095894;28;20056;-68
2022/12/06 00:30:10;;;;;;;12.63;6.53;;;6.00;99.90;;;;;;5082993;28;20127;-68
2022/12/06 00:32:36;;;;;;;15.90;6.15;;;6.00;99.90;;;;;;5076897;28;20052;-68
2022/12/06 00:35:02;;;;;;;14.73;5.63;;;6.00;99.90;;;;;;5082814;28;20799;-68
2022/12/06 00:37:28;;;;;;;15.95;6.93;;;6.00;99.90;;;;;;5060826;28;20079;-68
2022/12/06 00:39:53;;;;;;;14.30;5.30;;;6.00;99.90;;;;;;5098743;28;20054;-68
2022/12/06 00:42:19;;;;;;;9.57;5.18;;;6.00;99.90;;;;;;5084365;28;20120;-68
2022/12/06 00:44:45;;;;;;;7.85;5.13;;;6.00;99.90;;;;;;5081143;28;20047;-68
2022/12/06 00:47:11;;;;;;;12.18;5.10;;;6.00;99.90;;;;;;5102447;28;20044;-68
2022/12/06 00:49:36;;;;;;;11.88;4.22;;;5.90;99.90;;;;;;5075971;28;20083;-68
2022/12/06 00:52:02;;;;;;;7.25;4.25;;;5.90;99.90;;;;;;5070765;28;20059;-68
2022/12/06 00:54:28;;;;;;;8.13;4.38;;;5.80;99.90;;;;;;5079537;28;20059;-68
2022/12/06 00:56:54;;;;;;;7.95;4.13;;;5.80;99.90;;;;;;5073553;28;20073;-68
2022/12/06 00:59:20;;;;;;;10.85;4.15;;;5.80;99.90;;;;;;5105196;28;20110;-68
2022/12/06 01:01:45;;;;;;;10.70;4.95;;;5.80;99.90;;;;;;5098901;28;20049;-68
2022/12/06 01:04:11;;;;;;;9.68;4.18;;;5.80;99.90;;;;;;5097420;28;20055;-68
2022/12/06 01:06:37;;;;;;;14.10;4.47;;;5.70;99.90;;;;;;5072763;28;20039;-68
2022/12/06 01:09:06;;;;;;;10.98;3.85;;;5.70;99.90;;;;;;5091313;28;20131;-68
2022/12/06 01:11:32;;;;;;;10.82;4.72;;;5.70;99.90;;;;;;5066049;28;20045;-68
2022/12/06 01:13:58;;;;;;;11.80;3.58;;;5.70;99.90;;;;;;5077799;28;20081;-68
2022/12/06 01:16:27;;;;;;;12.95;4.28;;;5.70;99.90;;;;;;5100430;28;20037;-68
2022/12/06 01:18:55;;;;;;;11.57;3.70;;;5.70;99.90;;;;;;5073462;28;20061;-68
2022/12/06 01:21:22;;;;;;;12.35;4.28;;;5.50;99.90;;;;;;5069014;28;20101;-68
2022/12/06 01:23:48;;;;;;;11.70;4.47;;;5.60;99.90;;;;;;5067637;28;20053;-68
2022/12/06 01:26:25;;;;;;;10.27;4.50;;;5.60;99.90;;;;;;5087619;28;20190;-68
2022/12/06 01:28:51;;;;;;;9.30;3.60;;;5.60;99.90;;;;;;5068757;28;20101;-68
2022/12/06 01:31:17;;;;;;;12.98;4.70;;;5.60;99.90;;;;;;5078197;28;20048;-68
2022/12/06 01:33:43;;;;;;;12.30;4.30;;;5.50;99.90;;;;;;5080024;28;20540;-68
2022/12/06 01:36:18;;;;;;;9.02;3.70;;;5.60;99.90;;;;;;5079201;28;20060;-68
2022/12/06 01:38:48;;;;;;;9.80;4.10;;;5.70;99.90;;;;;;5090375;28;20207;-68
2022/12/06 01:41:14;;;;;;;10.93;4.15;;;5.70;99.90;;;;;;5086200;28;20461;-68
2022/12/06 01:43:42;;;;;;;14.90;4.10;;;5.70;99.90;;;;;;5091666;28;20046;-68
2022/12/06 01:46:28;;;;;;;8.77;4.45;;;5.70;99.90;;;;;;5084029;28;20052;-68
2022/12/06 01:49:20;;;;;;;10.95;4.10;;;5.70;99.90;;;;;;5061858;28;20053;-68
2022/12/06 01:51:58;;;;;;;11.93;4.10;;;5.60;99.90;;;;;;5077421;28;20052;-68
2022/12/06 01:54:25;;;;;;;10.27;3.90;;;5.70;99.90;;;;;;5097423;28;20066;-68
2022/12/06 01:56:53;;;;;;;10.98;4.50;;;5.70;99.90;;;;;;5092823;28;20105;-68
2022/12/06 01:59:19;;;;;;;12.55;4.75;;;5.70;99.90;;;;;;5076466;28;20048;-68
2022/12/06 02:01:46;;;;;;;9.75;4.07;;;5.80;99.90;;;;;;5088818;28;20036;-68
2022/12/06 02:04:12;;;;;;;11.30;4.70;;;5.80;99.90;;;;;;5069976;28;20048;-68
2022/12/06 02:06:39;;;;;;;14.65;4.82;;;5.80;99.90;;;;;;5101645;28;20040;-68
2022/12/06 02:09:06;;;;;;;13.73;5.07;;;5.70;99.90;;;;;;5071239;28;20082;-68
2022/12/06 02:11:32;;;;;;;11.93;4.97;;;5.70;99.90;;;;;;5091407;28;20040;-68
2022/12/06 02:13:58;;;;;;;11.18;4.18;;;5.80;99.90;;;;;;5091001;28;20040;-68
2022/12/06 02:17:02;;;;;;;6.95;3.97;;;5.80;99.90;;;;;;5104315;28;20140;-68
2022/12/06 02:19:42;;;;;;;9.32;3.88;;;5.80;99.90;;;;;;5091750;28;20083;-68
2022/12/06 02:22:38;;;;;;;9.15;4.32;;;5.80;99.90;;;;;;5070827;28;20040;-68
2022/12/06 02:25:24;;;;;;;9.90;3.60;;;5.80;99.90;;;;;;5088540;28;20467;-68
2022/12/06 02:28:20;;;;;;;8.65;3.45;;;5.80;99.90;;;;;;5083905;28;20051;-68
2022/12/06 02:30:55;;;;;;;9.30;3.72;;;5.80;99.90;;;;;;5104895;28;20044;-68
2022/12/06 02:33:29;;;;;;;6.28;3.25;;;5.80;99.90;;;;;;5108160;28;20052;-68
2022/12/06 02:36:12;;;;;;;8.30;3.33;;;5.80;99.90;;;;;;5071216;28;20055;-68
2022/12/06 02:39:21;;;;;;;9.95;3.55;;;5.80;99.90;;;;;;5089491;28;20044;-68
2022/12/06 02:41:57;;;;;;;8.55;3.15;;;5.80;99.90;;;;;;5089553;28;20058;-68
2022/12/06 02:44:32;;;;;;;7.28;2.97;;;5.80;99.90;;;;;;5100956;28;20048;-68
2022/12/06 02:47:02;;;;;;;5.22;2.80;;;5.70;99.90;;;;;;5090983;28;20151;-68
2022/12/06 02:49:30;;;;;;;;;;;5.80;99.90;;;;;;5081843;28;20056;-68
2022/12/06 02:51:56;;;;;;;7.28;2.72;;;5.80;99.90;;;;;;5068869;28;19917;-68
2022/12/06 02:54:24;;;;;;;6.63;2.85;;;5.70;99.90;;;;;;5060493;28;20040;-68
2022/12/06 02:56:50;;;;;;;7.03;3.45;;;5.70;99.90;;;;;;5106306;28;20086;-68
2022/12/06 02:59:15;;;;;;;9.68;3.25;;;5.80;99.90;;;;;;5106382;28;20039;-68
2022/12/06 03:01:45;;;;;;;7.03;2.72;;;5.80;99.90;;;;;;5105905;28;20040;-68
2022/12/06 03:04:14;;;;;;;;;;;5.70;99.90;;;;;;5080438;28;20123;-68
2022/12/06 03:07:23;;;;;;;7.15;2.65;;;5.80;99.90;;;;;;5087537;28;19975;-68
2022/12/06 03:10:09;;;;;;;6.07;2.30;;;5.70;99.90;;;;;;5066626;28;20050;-68
2022/12/06 03:12:40;;;;;;;4.75;2.70;;;5.80;99.90;;;;;;5077686;28;20053;-68
2022/12/06 03:15:26;;;;;;;6.55;2.45;;;5.80;99.90;;;;;;5084094;28;20052;-68
2022/12/06 03:18:14;;;;;;;7.07;2.70;;;5.70;99.90;;;;;;5088135;28;20052;-69
2022/12/06 03:20:55;;;;;;;3.80;2.65;;;5.70;99.90;;;;;;5084925;28;20057;-68
2022/12/06 03:23:30;;;;;;;9.82;2.20;;;5.60;99.90;;;;;;5086385;28;20053;-68
2022/12/06 03:25:59;;;;;;;4.43;2.13;;;5.70;99.90;;;;;;5080044;28;20051;-68
2022/12/06 03:28:27;;;;;;;5.35;2.72;;;5.60;99.90;;;;;;5082680;28;20412;-68
2022/12/06 03:31:00;;;;;;;6.93;2.40;;;5.70;99.90;;;;;;5069403;28;20120;-68
2022/12/06 03:33:28;;;;;;;8.02;2.08;;;5.60;99.90;;;;;;5069021;28;20052;-68
2022/12/06 03:35:56;;;;;;;5.57;2.25;;;5.70;99.90;;;;;;5074421;28;20237;-68
2022/12/06 03:38:42;;;;;;;4.93;2.22;;;5.70;99.90;;;;;;5094595;28;20071;-68
2022/12/06 03:41:09;;;;;;;7.55;3.40;;;5.60;99.90;;;;;;5088875;28;20484;-68
2022/12/06 03:43:35;;;;;;;4.60;1.75;;;5.60;99.90;;;;;;5085152;28;20052;-68
2022/12/06 03:46:37;;;;;;;4.65;2.35;;;5.70;99.90;;;;;;5095425;28;20060;-68
2022/12/06 03:49:09;;;;;;;6.38;2.03;;;5.70;99.90;;;;;;5037777;28;20149;-68
2022/12/06 03:51:37;;;;;;;5.32;2.33;;;5.60;99.90;;;;;;5042935;28;20087;-68
2022/12/06 03:54:06;;;;;;;4.10;1.88;;;5.70;99.90;;;;;;5014740;28;20057;-68
2022/12/06 03:56:35;;;;;;;4.05;1.75;;;5.60;99.90;;;;;;5043814;28;20057;-68
2022/12/06 03:59:05;;;;;;;3.88;2.28;;;5.60;99.90;;;;;;5026091;28;20541;-68
2022/12/06 04:01:30;;;;;;;4.70;1.90;;;5.70;99.90;;;;;;5026643;28;20077;-68
2022/12/06 04:03:57;;;;;;;3.83;1.95;;;5.60;99.90;;;;;;5042105;28;20083;-68
2022/12/06 04:06:23;;;;;;;4.60;2.45;;;5.60;99.90;;;;;;5008830;28;20088;-68
2022/12/06 04:08:48;;;;;;;4.40;2.22;;;5.60;99.90;;;;;;5013802;28;20045;-68
2022/12/06 04:11:14;;;;;;;3.45;1.90;;;5.60;99.90;;;;;;5028988;28;20057;-68
2022/12/06 04:13:40;;;;;;;3.65;1.88;;;5.60;99.90;;;;;;5024771;28;20050;-68
2022/12/06 04:18:09;;;;;;;3.83;2.05;;;5.60;99.90;;;;;;5029223;28;20096;-68
2022/12/06 04:18:54;;;;;;;6.45;2.20;;;5.60;99.90;;;;;;5024096;28;20061;-68
2022/12/06 04:23:56;;;;;;;3.22;1.95;;;5.60;99.90;;;;;;5082407;28;20052;-68
2022/12/06 04:26:22;;;;;;;5.03;2.30;;;5.60;99.90;;;;;;5069599;28;20066;-68
2022/12/06 04:39:48;;;;;;;8.00;2.28;;;5.50;99.90;;;;;;5101474;28;20408;-68
2022/12/06 04:44:59;;;;;;;5.32;2.25;;;5.50;99.90;;;;;;5078258;28;20067;-68
2022/12/06 04:47:25;;;;;;;5.82;2.30;;;5.40;99.90;;;;;;5084326;28;20103;-68
2022/12/06 04:49:51;;;;;;;4.97;2.08;;;5.40;99.90;;;;;;5100954;28;20040;-68
2022/12/06 04:52:18;;;;;;;3.88;2.30;;;5.40;99.90;;;;;;5085195;28;20073;-68
2022/12/06 04:54:44;;;;;;;5.90;2.17;;;5.40;99.90;;;;;;5095004;28;20044;-68
2022/12/06 04:57:11;;;;;;;5.80;2.35;;;5.30;99.90;;;;;;5087541;28;20052;-68
2022/12/06 04:59:40;;;;;;;5.85;2.88;;;5.20;99.90;;;;;;5075983;28;20534;-68
2022/12/06 05:02:07;;;;;;;6.30;2.70;;;5.00;99.90;;;;;;5087289;28;20074;-68
2022/12/06 05:04:33;;;;;;;6.00;2.33;;;4.90;99.90;;;;;;5085323;28;20036;-68
2022/12/06 05:06:58;;;;;;;4.05;2.35;;;4.80;99.90;;;;;;5101340;28;20039;-68
2022/12/06 05:09:24;;;;;;;5.40;2.60;;;4.70;99.90;;;;;;5074794;28;20056;-68
2022/12/06 05:11:50;;;;;;;4.13;2.30;;;4.60;99.90;;;;;;5088888;28;20044;-68
2022/12/06 05:14:16;;;;;;;6.47;2.38;;;4.60;99.90;;;;;;5086960;28;20033;-68
2022/12/06 05:16:42;;;;;;;7.07;3.67;;;4.40;99.90;;;;;;5072716;28;20040;-68
2022/12/06 05:19:09;;;;;;;5.72;2.45;;;4.40;99.90;;;;;;5068999;28;20131;-68
2022/12/06 05:21:35;;;;;;;4.82;2.13;;;4.30;99.90;;;;;;5067142;28;20103;-68
2022/12/06 05:24:01;;;;;;;5.63;2.15;;;4.30;99.90;;;;;;5094555;28;20059;-68
2022/12/06 05:26:27;;;;;;;5.80;2.28;;;4.30;99.90;;;;;;5069452;28;20051;-68
2022/12/06 05:28:54;;;;;;;5.15;2.35;;;4.30;99.90;;;;;;5084066;28;20044;-68
2022/12/06 05:31:21;;;;;;;7.43;2.13;;;4.20;99.90;;;;;;5087257;28;20039;-68
2022/12/06 05:33:47;;;;;;;4.43;1.98;;;4.20;99.90;;;;;;5086032;28;20127;-68
2022/12/06 05:36:22;;;;;;;3.72;2.22;;;4.30;99.90;;;;;;5087127;28;20565;-66
2022/12/06 05:38:48;;;;;;;5.68;2.05;;;4.40;99.90;;;;;;5049281;28;20055;-66
2022/12/06 05:41:15;;;;;;;5.88;2.45;;;4.30;99.90;;;;;;5099905;28;20044;-68
2022/12/06 05:43:40;;;;;;;5.35;2.42;;;4.30;99.90;;;;;;5059140;28;20059;-68
2022/12/06 05:46:06;;;;;;;6.20;2.20;;;4.30;99.90;;;;;;5041167;28;20045;-68
2022/12/06 05:48:32;;;;;;;6.90;2.28;;;4.40;99.90;;;;;;5073655;28;20050;-68
2022/12/06 05:50:58;;;;;;;5.90;2.30;;;4.40;99.90;;;;;;5073339;28;20044;-69
2022/12/06 05:53:24;;;;;;;5.25;2.30;;;4.30;99.90;;;;;;5050878;28;20045;-68
2022/12/06 05:55:50;;;;;;;4.78;2.10;;;4.40;99.90;;;;;;5064696;28;20082;-69
2022/12/06 05:58:16;;;;;;;14.52;2.58;;;4.40;99.90;;;;;;5067647;28;20047;-70
2022/12/06 06:00:46;;;;;;;6.35;2.80;;;4.40;99.90;;;;;;5094846;28;20119;-70
2022/12/06 06:03:12;;;;;;;6.75;1.85;;;4.40;99.90;;;;;;5085327;28;20039;-70
2022/12/06 06:05:44;;;;;;;8.88;3.20;;;4.40;99.90;;;;;;5075771;28;20059;-70
2022/12/06 06:08:10;;;;;;;4.18;2.28;;;4.30;99.90;;;;;;5078010;28;20428;-70
2022/12/06 06:10:35;;;;;;;6.13;2.72;;;4.40;99.90;;;;;;5091558;28;20040;-70
2022/12/06 06:13:03;;;;;;;8.38;2.85;;;4.30;99.90;;;;;;5096335;28;20107;-70
2022/12/06 06:15:28;;;;;;;6.30;3.17;;;4.30;99.90;;;;;;5065117;28;20060;-71
2022/12/06 06:17:54;;;;;;;6.95;3.28;;;4.30;99.90;;;;;;5085681;28;20039;-70
2022/12/06 06:20:20;;;;;;;6.95;3.42;;;4.40;99.90;;;;;;5079953;28;20123;-75
2022/12/06 06:22:45;;;;;;;5.95;3.10;;;4.40;99.90;;;;;;5073461;28;20076;-69
2022/12/06 06:25:11;;;;;;;8.23;3.78;;;4.40;99.90;;;;;;5065037;28;20089;-69
2022/12/06 06:27:37;;;;;;;5.18;2.90;;;4.40;99.90;;;;;;5076292;28;20096;-68
2022/12/06 06:30:08;;;;;;;6.05;3.58;;;4.40;99.90;;;;;;5078679;28;20075;-68
2022/12/06 06:32:34;;;;;;;8.13;3.00;;;4.40;99.90;;;;;;5056420;28;20051;-69
2022/12/06 06:35:00;;;;;;;6.70;3.20;;;4.40;99.90;;;;;;5042836;28;20525;-69
2022/12/06 06:37:26;;;;;;;8.02;3.22;;;4.30;99.90;;;;;;5049749;28;20070;-74
2022/12/06 06:39:52;;;;;;;7.82;3.13;;;4.30;99.90;;;;;;5067549;28;20044;-72
2022/12/06 06:42:17;;;;;;;8.63;3.95;;;4.30;99.90;;;;;;5073313;28;20048;-72
2022/12/06 06:44:44;;;;;;;10.40;3.72;;;4.30;99.90;;;;;;5057639;28;20117;-72
2022/12/06 06:47:09;;;;;;;7.88;3.75;;;4.30;99.90;;;;;;5073133;28;20056;-70
2022/12/06 06:49:35;;;;;;;6.20;2.90;;;4.30;99.90;;;;;;5062243;28;20102;-71
2022/12/06 06:52:01;;;;;;;8.38;3.60;;;4.30;99.90;;;;;;5062620;28;20059;-70
2022/12/06 06:54:26;;;;;;;8.38;3.20;;;4.30;99.90;;;;;;5071917;28;20535;-70
2022/12/06 06:56:56;;;;;;;5.65;3.40;;;4.20;99.90;;;;;;5079838;28;20036;-68
2022/12/06 06:59:23;;;;;;;5.43;3.47;;;4.20;99.90;;;;;;5076510;28;20135;-68
2022/12/06 07:01:49;;;;;;;7.72;3.30;;;4.20;99.90;;;;;;5075548;28;20052;-68
2022/12/06 07:04:16;;;;;;;7.15;3.10;;;4.10;99.90;;;;;;5075485;28;20617;-67
2022/12/06 07:06:41;;;;;;;5.53;2.88;;;4.10;99.90;;;;;;5067308;28;20113;-68
2022/12/06 07:09:07;;;;;;;5.90;3.40;;;4.10;99.90;;;;;;5067372;28;20558;-68
2022/12/06 07:11:33;;;;;;;5.82;3.15;;;3.90;99.90;;;;;;5055432;28;20040;-68
2022/12/06 07:14:01;;;;;;;5.10;3.10;;;3.80;99.90;;;;;;5067800;28;20476;-68
2022/12/06 07:16:27;;;;;;;8.52;3.40;;;3.90;99.90;;;;;;5056946;28;20099;-68
2022/12/06 07:18:52;;;;;;;11.32;4.78;;;3.80;99.90;;;;;;5073003;28;20052;-68
2022/12/06 07:21:18;;;;;;;7.82;4.45;;;3.80;99.90;;;;;;5059243;28;20045;-68
2022/12/06 07:23:44;;;;;;;5.00;2.92;;;3.70;99.90;;;;;;5064180;28;20120;-69
2022/12/06 07:26:13;;;;;;;7.20;3.05;;;3.60;99.90;;;;;;5058572;28;20092;-69
2022/12/06 07:28:41;;;;;;;7.25;3.00;;;3.60;99.90;;;;;;5053018;28;20049;-70
2022/12/06 07:31:12;;;;;;;5.03;3.20;;;3.40;99.90;;;;;;5071800;28;20555;-70
2022/12/06 07:33:39;;;;;;;5.18;2.88;;;3.30;99.90;;;;;;5053000;28;20040;-70
2022/12/06 07:36:05;;;;;;;4.32;2.47;;;3.10;99.90;;;;;;5052762;28;20484;-69
2022/12/06 07:38:31;;;;;;;5.30;4.20;;;3.00;99.90;;;;;;5045007;28;20052;-70
2022/12/06 07:41:01;;;;;;;4.97;3.17;;;3.00;99.90;;;;;;5068015;28;20045;-70
2022/12/06 07:46:12;;;;;;;6.50;3.03;;;2.90;99.90;;;;;;5066773;28;20148;-70
2022/12/06 07:48:38;;;;;;;7.22;3.40;;;2.70;99.90;;;;;;5067947;28;20076;-70
2022/12/06 07:51:04;;;;;;;6.45;3.17;;;2.60;99.90;;;;;;5064527;28;20040;-70
2022/12/06 07:53:30;;;;;;;9.48;4.00;;;2.60;99.90;;;;;;5076858;28;20134;-70
2022/12/06 07:55:56;;;;;;;7.38;3.40;;;2.60;99.90;;;;;;5050285;28;20052;-69
2022/12/06 07:58:22;;;;;;;7.82;3.55;;;2.60;99.90;;;;;;5064537;28;20041;-69
2022/12/06 08:00:47;;;;;;;5.45;3.10;;;2.60;99.90;;;;;;5055809;28;20054;-69
2022/12/06 08:03:13;;;;;;;10.30;4.13;;;2.50;99.90;;;;;;5067053;28;20037;-69
2022/12/06 08:05:39;;;;;;;7.13;4.03;;;2.50;99.90;;;;;;5055983;28;20087;-69
2022/12/06 08:08:05;;;;;;;5.32;3.80;;;2.50;99.90;;;;;;5065072;28;20057;-69
2022/12/06 08:10:31;;;;;;;9.10;3.70;;;2.40;99.90;;;;;;5046062;28;20051;-69
2022/12/06 08:12:57;;;;;;;6.53;3.55;;;2.50;99.90;;;;;;5074814;28;20049;-69
2022/12/06 08:15:23;;;;;;;8.85;3.92;;;2.40;99.90;;;;;;5056383;28;20045;-69
2022/12/06 08:17:48;;;;;;;10.82;4.05;;;2.40;99.90;;;;;;5072764;28;20063;-69
2022/12/06 08:20:14;;;;;;;6.93;3.88;;;2.40;99.90;;;;;;5035029;28;20080;-69
2022/12/06 08:22:40;;;;;;;7.15;3.78;;;2.50;99.90;;;;;;5055722;28;20044;-69
2022/12/06 08:25:06;;;;;;;10.70;3.70;;;2.40;99.90;;;;;;5031868;28;20095;-69
2022/12/06 08:27:32;;;;;;;8.60;4.10;;;2.50;99.90;;;;;;5048517;28;20037;-69
2022/12/06 08:29:57;;;;;;;11.05;4.15;;;2.40;99.90;;;;;;5036384;28;20082;-69
2022/12/06 08:32:23;;;;;;;7.65;4.35;;;2.50;99.90;;;;;;5024897;28;20269;-69
2022/12/06 08:34:49;;;;;;;6.82;3.90;;;2.50;99.90;;;;;;5035593;28;20068;-69
2022/12/06 08:37:14;;;;;;;7.78;3.90;;;2.50;99.90;;;;;;5034038;28;20534;-69
2022/12/06 08:39:40;;;;;;;7.60;3.97;;;2.50;99.90;;;;;;5026150;28;20048;-69
2022/12/06 08:42:06;;;;;;;13.27;4.70;;;2.60;99.90;;;;;;5027690;28;20038;-69
2022/12/06 08:44:33;;;;;;;9.20;4.57;;;2.60;99.90;;;;;;5029173;28;20056;-69
2022/12/06 08:47:01;;;;;;;9.55;4.93;;;2.70;99.90;;;;;;5030478;28;20111;-69
2022/12/06 08:49:28;;;;;;;10.30;5.10;;;2.80;99.90;;;;;;5028260;28;20056;-69
2022/12/06 08:51:54;;;;;;;7.72;4.63;;;2.80;99.90;;;;;;5032246;28;20053;-69
2022/12/06 08:54:22;;;;;;;8.60;5.03;;;2.80;99.90;;;;;;5027193;28;20065;-69
2022/12/06 08:56:49;;;;;;;9.38;4.68;;;2.90;99.90;;;;;;5034278;28;20033;-69
2022/12/06 08:59:16;;;;;;;9.10;4.57;;;2.80;99.90;;;;;;5018762;28;20501;-69
2022/12/06 09:01:42;;;;;;;8.20;4.88;;;3.00;99.90;;;;;;5045997;28;20046;-69
2022/12/06 09:04:09;;;;;;;11.02;5.45;;;3.00;99.90;;;;;;5021188;28;20077;-69
2022/12/06 09:06:40;;;;;;;10.27;6.75;;;3.00;99.90;;;;;;5018567;28;20123;-69
2022/12/06 09:09:07;;;;;;;11.18;5.07;;;3.10;99.90;;;;;;5020140;28;20086;-69
2022/12/06 09:11:33;;;;;;;9.20;5.40;;;3.20;99.90;;;;;;5038473;28;20053;-69
2022/12/06 09:13:59;;;;;;;8.70;5.25;;;3.40;99.90;;;;;;5019953;28;20033;-69
2022/12/06 09:16:25;;;;;;;9.75;5.72;;;3.40;99.90;;;;;;5070628;28;20044;-69
2022/12/06 09:18:52;;;;;;;8.90;5.32;;;3.60;99.90;;;;;;5044101;28;20421;-70
2022/12/06 09:21:21;;;;;;;9.63;5.63;;;3.60;99.90;;;;;;5091120;28;20325;-69
2022/12/06 09:23:47;;;;;;;10.88;4.90;;;3.80;99.90;;;;;;5091115;28;20067;-69
2022/12/06 09:26:13;;;;;;;7.97;4.55;;;3.80;99.90;;;;;;5045729;28;20143;-69
2022/12/06 09:28:40;;;;;;;8.88;5.22;;;3.80;99.90;;;;;;5057212;28;20100;-69
2022/12/06 09:31:07;;;;;;;9.60;5.18;;;3.90;99.90;;;;;;5045186;28;20049;-69
2022/12/06 09:33:34;;;;;;;10.05;4.53;;;3.80;99.90;;;;;;5058112;28;20055;-69
2022/12/06 09:36:05;;;;;;;8.75;4.72;;;3.90;99.90;;;;;;5036474;28;20052;-69
2022/12/06 09:38:35;;;;;;;6.97;4.80;;;4.00;99.90;;;;;;5035617;28;20045;-69
2022/12/06 09:41:04;;;;;;;;;;;4.20;99.90;;;;;;5050068;28;20049;-69
2022/12/06 09:43:38;;;;;;;7.97;4.43;;;4.40;99.90;;;;;;5075285;28;20423;-69
2022/12/06 09:46:19;;;;;;;11.70;4.65;;;4.70;99.90;;;;;;5048944;28;20106;-68
2022/12/06 09:49:06;;;;;;;11.07;4.90;;;4.70;99.90;;;;;;5058322;28;20118;-69
2022/12/06 09:51:50;;;;;;;6.57;4.20;;;4.70;99.90;;;;;;5017239;28;20045;-69
2022/12/06 09:54:38;;;;;;;7.10;4.25;;;4.80;99.90;;;;;;5059642;28;20036;-68
2022/12/06 09:57:15;;;;;;;8.93;3.80;;;4.90;99.90;;;;;;5070087;28;20053;-68
2022/12/06 09:59:55;;;;;;;8.18;3.58;;;4.90;99.90;;;;;;5030056;28;20724;-70
2022/12/06 10:02:58;;;;;;;7.53;4.05;;;4.80;99.90;;;;;;5065701;28;20051;-71
2022/12/06 10:05:53;;;;;;;6.65;3.83;;;4.70;99.90;;;;;;5059931;28;20048;-70
2022/12/06 10:08:40;;;;;;;10.60;4.40;;;4.80;99.90;;;;;;5061296;28;20411;-71
2022/12/06 10:11:33;;;;;;;7.45;4.70;;;5.00;99.90;;;;;;5075197;28;20435;-69
2022/12/06 10:14:17;;;;;;;7.53;4.10;;;5.00;99.90;;;;;;5068407;28;20091;-70
2022/12/06 10:17:12;;;;;;;7.55;4.05;;;5.10;99.90;;;;;;5052324;28;20112;-69
2022/12/06 10:20:14;;;;;;;10.68;4.05;;;5.20;99.90;;;;;;5062023;28;20041;-70
2022/12/06 10:22:46;;;;;;;5.85;3.95;;;5.30;99.90;;;;;;5064137;28;20060;-69
2022/12/06 10:25:44;;;;;;;5.80;3.38;;;5.30;99.90;;;;;;5052624;28;20044;-71
2022/12/06 10:28:12;;;;;;;6.97;3.95;;;5.40;99.90;;;;;;5053708;28;20132;-71
2022/12/06 10:31:05;;;;;;;5.47;4.00;;;5.40;99.90;;;;;;5050730;28;20040;-67
2022/12/06 10:33:52;;;;;;;8.35;4.20;;;5.20;99.90;;;;;;5061812;28;20495;-68
2022/12/06 10:36:47;;;;;;;6.93;4.00;;;5.20;99.90;;;;;;5036307;28;20136;-68
2022/12/06 10:39:22;;;;;;;7.53;3.80;;;5.20;99.90;;;;;;5042501;28;20554;-69
2022/12/06 10:42:12;;;;;;;7.75;3.85;;;5.30;99.90;;;;;;5077779;28;20088;-68
2022/12/06 10:44:45;;;;;;;7.20;3.95;;;5.40;99.90;;;;;;5040489;28;20048;-68
2022/12/06 10:47:23;;;;;;;5.13;3.47;;;5.40;99.90;;;;;;5090243;28;20048;-68
2022/12/06 10:49:59;;;;;;;8.48;3.38;;;5.30;99.90;;;;;;5071653;28;20071;-69
2022/12/06 10:52:45;;;;;;;5.10;2.70;;;5.40;99.90;;;;;;5069111;28;20052;-68
2022/12/06 10:55:37;;;;;;;7.43;3.10;;;5.50;99.90;;;;;;5074693;28;20048;-68
2022/12/06 10:58:14;;;;;;;4.05;2.75;;;5.50;99.90;;;;;;5032312;28;20056;-68
2022/12/06 11:00:57;;;;;;;6.72;3.10;;;5.60;99.90;;;;;;5081600;28;20314;-69
2022/12/06 11:04:00;;;;;;;6.47;2.90;;;5.70;99.90;;;;;;5063341;28;20048;-69
2022/12/06 11:06:39;;;;;;;5.53;3.03;;;5.80;99.90;;;;;;5082189;28;20041;-68
2022/12/06 11:09:22;;;;;;;8.48;3.03;;;5.90;99.90;;;;;;5058174;28;20069;-68
2022/12/06 11:11:49;;;;;;;5.63;2.70;;;5.90;99.90;;;;;;5051813;28;20510;-69
2022/12/06 11:14:23;;;;;;;8.07;2.95;;;6.00;99.90;;;;;;5098671;28;20049;-68
2022/12/06 11:16:57;;;;;;;6.53;2.55;;;6.10;99.90;;;;;;5051036;28;20044;-68
2022/12/06 11:19:32;;;;;;;4.85;2.65;;;6.10;99.90;;;;;;5064148;28;20052;-68
2022/12/06 11:22:30;;;;;;;7.28;2.30;;;6.30;99.90;;;;;;5068127;28;20400;-69
2022/12/06 11:25:21;;;;;;;6.35;2.33;;;6.40;99.90;;;;;;5070419;28;20066;-68
2022/12/06 11:28:04;;;;;;;6.53;2.40;;;6.60;99.90;;;;;;5075254;28;20055;-67
2022/12/06 11:30:32;;;;;;;3.47;2.20;;;6.80;99.90;;;;;;5067086;28;20051;-67
2022/12/06 11:33:00;;;;;;;4.82;2.00;;;6.80;99.90;;;;;;5046715;28;20064;-67
2022/12/06 11:35:27;;;;;;;4.38;2.10;;;6.80;99.90;;;;;;5071980;28;20040;-66
2022/12/06 11:38:06;;;;;;;6.78;2.20;;;6.80;99.90;;;;;;5069120;28;20072;-68
2022/12/06 11:40:35;;;;;;;7.00;2.33;;;6.70;99.90;;;;;;5059594;28;20063;-67
2022/12/06 11:43:07;;;;;;;3.78;2.42;;;6.70;99.90;;;;;;5077315;28;20040;-67
2022/12/06 11:45:36;;;;;;;8.63;2.30;;;6.60;99.90;;;;;;5059181;28;20434;-67
2022/12/06 11:48:21;;;;;;;3.45;2.60;;;6.50;99.90;;;;;;5071164;28;20536;-67
2022/12/06 11:50:48;;;;;;;4.63;2.70;;;6.50;99.90;;;;;;5078701;28;20044;-67
2022/12/06 11:53:40;;;;;;;4.72;2.33;;;6.40;99.90;;;;;;5066421;28;20040;-67
2022/12/06 11:56:20;;;;;;;4.80;2.50;;;6.40;99.90;;;;;;5061540;28;20054;-67
2022/12/06 11:59:21;;;;;;;10.13;2.65;;;6.40;99.90;;;;;;5077837;28;20098;-67
2022/12/06 12:01:52;;;;;;;6.25;2.65;;;6.40;99.90;;;;;;5077788;28;20055;-67
2022/12/06 12:04:23;;;;;;;5.20;2.40;;;6.40;99.90;;;;;;5059664;28;20110;-67
2022/12/06 12:06:55;;;;;;;5.10;2.78;;;6.30;99.90;;;;;;5080677;28;20072;-66
2022/12/06 12:09:21;;;;;;;8.05;2.55;;;6.40;99.90;;;;;;5063593;28;20052;-66
2022/12/06 12:11:58;;;;;;;3.60;2.45;;;6.40;99.90;;;;;;5085780;28;20071;-68
2022/12/06 12:14:28;;;;;;;4.05;2.63;;;6.50;99.90;;;;;;5078599;28;20245;-66
2022/12/06 12:16:58;;;;;;;8.27;2.67;;;6.40;99.90;;;;;;5085194;28;20057;-67
2022/12/06 12:19:33;;;;;;;5.93;2.55;;;6.40;99.90;;;;;;5062415;28;20048;-66
2022/12/06 12:22:35;;;;;;;5.57;2.33;;;6.40;99.90;;;;;;5065576;28;20106;-67
2022/12/06 12:25:23;;;;;;;7.45;2.53;;;6.50;99.90;;;;;;5054005;28;20068;-67
2022/12/06 12:27:54;;;;;;;8.73;3.28;;;6.50;99.90;;;;;;5049439;28;20056;-67
2022/12/06 12:30:26;;;;;;;7.38;2.70;;;6.60;99.90;;;;;;5028962;28;20152;-67
2022/12/06 12:33:04;;;;;;;4.72;3.13;;;6.60;99.90;;;;;;5045617;28;20127;-66
2022/12/06 12:35:31;;;;;;;6.03;2.95;;;6.80;99.90;;;;;;5047555;28;20046;-66
2022/12/06 12:38:04;;;;;;;5.53;2.80;;;7.00;99.90;;;;;;5080100;28;20105;-67
2022/12/06 12:40:41;;;;;;;5.88;2.45;;;7.00;99.90;;;;;;5073013;28;20268;-67
2022/12/06 12:43:10;;;;;;;7.78;2.72;;;6.90;99.90;;;;;;5061607;28;20037;-67
2022/12/06 12:45:40;;;;;;;4.50;2.50;;;6.80;99.90;;;;;;5068431;28;20095;-66
2022/12/06 12:48:24;;;;;;;4.82;2.28;;;6.70;99.90;;;;;;5058906;28;20098;-67
2022/12/06 12:50:55;;;;;;;5.88;3.05;;;6.50;99.90;;;;;;5040639;28;20128;-67
2022/12/06 12:53:43;;;;;;;4.97;2.40;;;6.50;99.90;;;;;;5071265;28;20052;-67
2022/12/06 12:56:14;;;;;;;5.55;2.28;;;6.50;99.90;;;;;;5085771;28;20537;-67
2022/12/06 12:58:40;;;;;;;4.60;2.28;;;6.40;99.90;;;;;;5069340;28;20051;-67
2022/12/06 13:01:40;;;;;;;4.63;2.10;;;6.50;99.90;;;;;;5049190;28;20047;-67
2022/12/06 13:04:15;;;;;;;3.67;2.38;;;6.50;99.90;;;;;;5062909;28;20080;-67
2022/12/06 13:06:46;;;;;;;4.00;1.92;;;6.50;99.90;;;;;;5064574;28;20048;-67
2022/12/06 13:09:42;;;;;;;9.23;2.80;;;6.60;99.90;;;;;;5079463;28;20052;-67
2022/12/06 13:12:36;;;;;;;6.13;2.03;;;6.60;99.90;;;;;;5081694;28;20060;-67
2022/12/06 13:15:14;;;;;;;3.08;2.13;;;6.80;99.90;;;;;;5035963;28;20115;-67
2022/12/06 13:17:43;;;;;;;4.70;1.88;;;6.90;99.90;;;;;;5075401;28;20391;-67
2022/12/06 13:20:23;;;;;;;5.60;2.17;;;6.90;99.90;;;;;;5067569;28;20044;-67
2022/12/06 13:23:01;;;;;;;4.80;2.00;;;6.90;99.90;;;;;;5077971;28;20639;-67
2022/12/06 13:25:27;;;;;;;4.38;1.92;;;6.90;99.90;;;;;;5067985;28;20056;-67
2022/12/06 13:27:57;;;;;;;8.07;2.58;;;7.00;99.90;;;;;;5069800;28;20068;-67
2022/12/06 13:30:27;;;;;;;4.97;1.85;;;6.80;99.90;;;;;;5062970;28;20124;-67
2022/12/06 13:33:05;;;;;;;5.05;2.00;;;6.90;99.90;;;;;;5047515;28;20055;-67
2022/12/06 13:35:32;;;;;;;5.28;2.20;;;6.90;99.90;;;;;;5039520;28;20547;-67
2022/12/06 13:38:01;;;;;;;5.20;2.03;;;6.90;99.90;;;;;;5051804;28;20059;-67